createdAt,value
2023-01-25T00:02:36.010Z,0.00
2023-01-25T00:12:40.867Z,0.00
2023-01-25T00:22:44.398Z,0.00
2023-01-25T00:32:59.774Z,-0.10
2023-01-25T00:43:03.205Z,-0.10
2023-01-25T00:53:09.850Z,-0.10
2023-01-25T01:03:13.427Z,0.00
2023-01-25T01:13:18.271Z,-0.20
2023-01-25T01:23:22.205Z,-0.20
2023-01-25T01:33:27.086Z,-0.10
2023-01-25T01:43:31.667Z,-0.10
2023-01-25T01:53:39.881Z,-0.20
2023-01-25T02:03:44.763Z,-0.20
2023-01-25T02:13:50.451Z,-0.20
2023-01-25T02:24:02.927Z,-0.10
2023-01-25T02:34:07.766Z,-0.10
2023-01-25T02:44:16.302Z,-0.10
2023-01-25T02:54:21.925Z,0.00
2023-01-25T03:04:25.455Z,0.00
2023-01-25T03:14:30.655Z,0.00
2023-01-25T03:24:34.231Z,0.00
2023-01-25T03:34:41.275Z,0.00
2023-01-25T03:44:45.979Z,0.00
2023-01-25T03:54:50.967Z,-0.10
2023-01-25T04:04:55.492Z,-0.10
2023-01-25T04:15:00.954Z,-0.10
2023-01-25T04:25:04.870Z,0.00
2023-01-25T04:35:11.465Z,-0.10
2023-01-25T04:45:15.439Z,-0.10
2023-01-25T04:55:20.790Z,0.00
2023-01-25T05:05:24.619Z,-0.10
2023-01-25T05:15:31.782Z,-0.20
2023-01-25T05:25:52.991Z,0.00
2023-01-25T05:36:05.349Z,-0.20
2023-01-25T05:46:12.224Z,-0.20
2023-01-25T05:56:17.857Z,-0.20
2023-01-25T06:06:22.368Z,-0.20
2023-01-25T06:16:27.685Z,-0.20
2023-01-25T06:26:49.633Z,-0.20
2023-01-25T06:36:54.475Z,-0.20
2023-01-25T06:46:58.802Z,-0.20
2023-01-25T06:57:07.081Z,-0.10
2023-01-25T07:07:10.737Z,0.00
2023-01-25T07:17:15.572Z,0.20
2023-01-25T07:27:19.049Z,0.20
2023-01-25T07:37:23.919Z,0.40
2023-01-25T07:47:27.339Z,0.50
2023-01-25T07:57:32.287Z,0.50
2023-01-25T08:07:35.764Z,0.80
2023-01-25T08:17:40.623Z,0.90
2023-01-25T08:27:44.286Z,1.20
2023-01-25T08:37:49.118Z,1.50
2023-01-25T08:47:52.581Z,1.70
2023-01-25T08:57:57.669Z,2.20
2023-01-25T09:08:01.321Z,2.40
2023-01-25T09:18:06.589Z,2.20
2023-01-25T09:28:11.642Z,2.30
2023-01-25T09:38:16.552Z,3.00
2023-01-25T09:48:32.532Z,3.30
2023-01-25T09:58:41.840Z,2.90
2023-01-25T10:08:55.265Z,2.70
2023-01-25T10:19:15.584Z,2.60
2023-01-25T10:29:22.840Z,2.80
2023-01-25T10:39:27.799Z,3.30
2023-01-25T10:49:41.398Z,3.90
2023-01-25T10:59:49.690Z,3.80
2023-01-25T11:09:53.145Z,4.20
2023-01-25T11:20:17.677Z,3.90
2023-01-25T11:30:21.749Z,3.70
2023-01-25T11:40:39.476Z,3.70
2023-01-25T11:50:51.186Z,3.70
2023-01-25T12:01:11.037Z,3.20
2023-01-25T12:11:29.932Z,2.70
2023-01-25T12:21:57.652Z,2.60
2023-01-25T12:32:09.789Z,2.50
2023-01-25T12:42:21.743Z,2.50
2023-01-25T12:52:31.947Z,2.40
2023-01-25T13:03:05.785Z,2.20
2023-01-25T13:13:25.362Z,2.00
2023-01-25T13:23:33.979Z,2.10
2023-01-25T13:33:37.962Z,1.80
2023-01-25T13:43:49.225Z,1.80
2023-01-25T13:54:00.539Z,1.70
2023-01-25T14:04:06.743Z,1.50
2023-01-25T14:14:22.120Z,1.20
2023-01-25T14:24:27.029Z,1.10
2023-01-25T14:34:30.573Z,0.90
2023-01-25T14:44:35.971Z,0.90
2023-01-25T14:54:48.573Z,0.80
2023-01-25T15:05:04.905Z,0.80
2023-01-25T15:15:23.375Z,0.90
2023-01-25T15:25:28.323Z,0.60
2023-01-25T15:35:31.874Z,0.40
2023-01-25T15:45:36.724Z,0.30
2023-01-25T15:55:40.351Z,0.30
2023-01-25T16:05:45.281Z,0.30
2023-01-25T16:15:52.635Z,0.30
2023-01-25T16:25:57.947Z,0.20
2023-01-25T16:36:13.726Z,0.20
2023-01-25T16:46:21.699Z,0.20
2023-01-25T16:56:27.976Z,0.20
2023-01-25T17:06:35.931Z,0.10
2023-01-25T17:16:39.470Z,0.10
2023-01-25T17:26:44.376Z,0.00
2023-01-25T17:36:48.238Z,-0.10
2023-01-25T17:46:53.419Z,0.00
2023-01-25T17:56:56.891Z,0.00
2023-01-25T18:07:01.828Z,0.00
2023-01-25T18:17:05.379Z,0.10
2023-01-25T18:27:20.103Z,0.00
2023-01-25T18:37:29.378Z,0.10
2023-01-25T18:47:34.326Z,0.00
2023-01-25T18:57:37.988Z,0.00
2023-01-25T19:07:43.892Z,-0.20
2023-01-25T19:17:47.368Z,-0.20
2023-01-25T19:27:52.312Z,-0.20
2023-01-25T19:37:56.135Z,-0.20
2023-01-25T19:48:03.382Z,-0.20
2023-01-25T19:58:08.909Z,-0.40
2023-01-25T20:08:17.609Z,-0.30
2023-01-25T20:18:22.160Z,-0.30
2023-01-25T20:28:27.343Z,-0.20
2023-01-25T20:38:31.679Z,-0.30
2023-01-25T20:48:37.390Z,-0.40
2023-01-25T20:58:41.659Z,-0.50
2023-01-25T21:08:47.086Z,-0.50
2023-01-25T21:18:53.204Z,-0.40
2023-01-25T21:29:00.133Z,-0.40
2023-01-25T21:39:04.276Z,-0.40
2023-01-25T21:49:28.602Z,-0.40
2023-01-25T21:59:32.705Z,-0.40
2023-01-25T22:09:37.604Z,-0.40
2023-01-25T22:19:41.034Z,-0.60
2023-01-25T22:29:45.855Z,-0.80
2023-01-25T22:39:49.392Z,-0.80
2023-01-25T22:49:54.273Z,-0.60
2023-01-25T22:59:57.760Z,-0.60
2023-01-25T23:10:02.752Z,-0.60
2023-01-25T23:20:08.210Z,-0.60
2023-01-25T23:30:14.186Z,-0.60
2023-01-25T23:40:18.304Z,-0.60
2023-01-25T23:50:23.124Z,-0.60
